Rohrersville, Maryland
Current Conditions -  °F | °C
As of 2:45 PM on Thursday 23 Oct 2014 (Local Time) from KFDK Reporting Station
Broken Clouds Broken Clouds  
Wind Chill: 66°   Ceiling: 4400
Heat Index: 66°   Visibility: 10mi
Dew Point: 45°   Wind: 17mph
Humidity: 46%   Direction: 350°N
Pressure: 29.9"   Gusts: 23mph
Location:  39.43°N, 77.66°W
Report Text: KFDK 231845Z 35015G20KT 10SM BKN044 19/07 A2990
Loading
Personal Weather Stations






























Interactive Weather Map
Tropical Storm Tracking
New forecast layout! Learn more

10-Day Weather Forecast

Advertisements
Track Severe Weather on mobile